Time;durP1;ratioP1;P1;durP2;ratioP2;P2;SDS_P1;SDS_P2;PMS_P1;PMS_P2;Temp;Humidity;BMP_temperature;BMP_pressure;BME280_temperature;BME280_humidity;BME280_pressure;Samples;Min_cycle;Max_cycle;Signal;HPM_P1;HPM_P2
2023/01/16 00:01:43;;;;;;;34.57;18.90;;;-0.70;99.90;;;;;;4230153;28;20272;-61
2023/01/16 00:03:44;;;;;;;34.80;19.60;;;-0.70;99.90;;;;;;4231406;28;20252;-60
2023/01/16 00:05:46;;;;;;;36.60;20.43;;;-0.70;99.90;;;;;;4230289;28;20800;-61
2023/01/16 00:07:47;;;;;;;34.60;19.33;;;-0.80;99.90;;;;;;4231413;28;20317;-62
2023/01/16 00:09:48;;;;;;;37.03;18.37;;;-0.80;99.90;;;;;;4230437;28;20292;-60
2023/01/16 00:11:49;;;;;;;33.80;17.87;;;-0.80;99.90;;;;;;4231122;28;20682;-70
2023/01/16 00:13:50;;;;;;;40.97;22.17;;;-0.70;99.90;;;;;;4230062;28;20272;-68
2023/01/16 00:15:52;;;;;;;48.80;23.10;;;-0.80;99.90;;;;;;4230594;28;20634;-68
2023/01/16 00:17:53;;;;;;;54.90;27.67;;;-0.80;99.90;;;;;;4230140;28;20264;-63
2023/01/16 00:19:54;;;;;;;44.77;24.47;;;-0.90;99.90;;;;;;4229898;28;20670;-69
2023/01/16 00:21:55;;;;;;;47.23;23.20;;;-0.90;99.90;;;;;;4230464;28;20272;-60
2023/01/16 00:23:57;;;;;;;58.27;27.20;;;-0.90;99.90;;;;;;4229960;28;20321;-61
2023/01/16 00:25:59;;;;;;;60.77;29.07;;;-1.00;99.90;;;;;;4230768;28;20252;-62
2023/01/16 00:28:00;;;;;;;63.87;30.13;;;-1.00;99.90;;;;;;4229739;28;20321;-64
2023/01/16 00:30:02;;;;;;;68.03;32.17;;;-1.00;99.90;;;;;;4230006;28;20787;-60
2023/01/16 00:32:03;;;;;;;64.20;34.20;;;-1.00;99.90;;;;;;4229950;28;20773;-61
2023/01/16 00:34:04;;;;;;;61.73;28.97;;;-1.00;99.90;;;;;;4231174;28;20337;-60
2023/01/16 00:36:07;;;;;;;55.30;29.17;;;-1.00;99.90;;;;;;4229515;28;20276;-67
2023/01/16 00:38:08;;;;;;;58.47;29.93;;;-0.90;99.90;;;;;;4230760;28;20272;-61
2023/01/16 00:40:10;;;;;;;60.97;29.63;;;-0.90;99.90;;;;;;4229909;28;20321;-61
2023/01/16 00:42:11;;;;;;;69.50;34.33;;;-0.90;99.90;;;;;;4230695;28;20666;-61
2023/01/16 00:44:12;;;;;;;68.83;35.47;;;-0.90;99.90;;;;;;4229466;28;20740;-65
2023/01/16 00:46:13;;;;;;;78.20;36.33;;;-0.90;99.90;;;;;;4230398;28;20252;-61
2023/01/16 00:48:14;;;;;;;75.33;35.30;;;-0.90;99.90;;;;;;4230104;28;20658;-62
2023/01/16 00:50:15;;;;;;;69.53;35.80;;;-0.90;99.90;;;;;;4229781;28;20329;-62
2023/01/16 00:52:17;;;;;;;67.23;34.73;;;-0.90;99.90;;;;;;4230091;28;21069;-61
2023/01/16 00:54:18;;;;;;;72.33;34.77;;;-0.80;99.90;;;;;;4228259;28;20626;-62
2023/01/16 00:56:19;;;;;;;74.70;35.87;;;-0.80;99.90;;;;;;4230563;28;20256;-62
2023/01/16 00:58:20;;;;;;;62.13;33.43;;;-0.70;99.90;;;;;;4229149;28;20268;-63
2023/01/16 01:00:22;;;;;;;63.87;32.37;;;-0.70;99.90;;;;;;4230438;28;20261;-61
2023/01/16 01:02:23;;;;;;;68.70;32.90;;;-0.60;99.90;;;;;;4229371;28;20302;-71
2023/01/16 01:04:24;;;;;;;60.07;31.50;;;-0.60;99.90;;;;;;4230216;28;20682;-61
2023/01/16 01:06:25;;;;;;;64.90;32.47;;;-0.50;99.90;;;;;;4229084;28;20276;-69
2023/01/16 01:08:26;;;;;;;68.63;33.97;;;-0.50;99.90;;;;;;4230687;28;20264;-61
2023/01/16 01:10:27;;;;;;;64.87;31.93;;;-0.50;99.90;;;;;;4229149;28;20697;-62
2023/01/16 01:12:29;;;;;;;65.90;30.70;;;-0.40;99.90;;;;;;4230385;28;20727;-63
2023/01/16 01:14:30;;;;;;;60.47;31.20;;;-0.40;99.90;;;;;;4229143;28;20282;-61
2023/01/16 01:16:31;;;;;;;59.47;31.13;;;-0.30;99.90;;;;;;4229578;28;20294;-62
2023/01/16 01:18:32;;;;;;;65.80;31.47;;;-0.30;99.90;;;;;;4229498;28;20317;-61
2023/01/16 01:20:33;;;;;;;68.50;34.17;;;-0.20;99.90;;;;;;4229527;28;20272;-61
2023/01/16 01:22:34;;;;;;;67.93;31.13;;;-0.20;99.90;;;;;;4228242;28;20268;-59
2023/01/16 01:24:35;;;;;;;67.50;33.00;;;-0.20;99.90;;;;;;4229043;28;20264;-61
2023/01/16 01:26:37;;;;;;;64.03;33.03;;;-0.20;99.90;;;;;;4229827;28;20743;-61
2023/01/16 01:28:39;;;;;;;61.07;31.80;;;-0.20;99.90;;;;;;4228753;28;20272;-62
2023/01/16 01:30:40;;;;;;;65.57;33.67;;;-0.10;99.90;;;;;;4229897;28;21028;-61
2023/01/16 01:32:41;;;;;;;64.87;33.57;;;-0.10;99.90;;;;;;4228823;28;20325;-67
2023/01/16 01:34:42;;;;;;;57.33;29.83;;;0.00;99.90;;;;;;4229742;28;20337;-68
2023/01/16 01:36:44;;;;;;;60.00;29.77;;;0.00;99.90;;;;;;4228824;28;20252;-61
2023/01/16 01:38:46;;;;;;;56.77;29.17;;;0.00;99.90;;;;;;4229820;28;20280;-60
2023/01/16 01:40:47;;;;;;;56.30;27.83;;;-0.10;99.90;;;;;;4228709;28;20408;-61
2023/01/16 01:42:51;;;;;;;54.50;27.07;;;-0.10;99.90;;;;;;4228322;28;20313;-60
2023/01/16 01:44:54;;;;;;;53.27;26.80;;;-0.10;99.90;;;;;;4228555;28;20325;-65
2023/01/16 01:46:56;;;;;;;55.70;29.77;;;-0.10;99.90;;;;;;4229548;28;20534;-59
2023/01/16 01:49:04;;;;;;;55.03;28.93;;;-0.10;99.90;;;;;;4228946;28;20259;-63
2023/01/16 01:51:10;;;;;;;51.73;27.23;;;-0.10;99.90;;;;;;4229066;28;20779;-66
2023/01/16 01:53:44;;;;;;;59.27;27.87;;;-0.20;99.90;;;;;;4228574;28;20306;-61
2023/01/16 01:55:47;;;;;;;55.17;28.57;;;-0.20;99.90;;;;;;4228634;28;20263;-59
2023/01/16 01:57:59;;;;;;;54.77;27.53;;;-0.20;99.90;;;;;;4228617;28;20263;-64
2023/01/16 02:00:06;;;;;;;44.90;24.07;;;-0.30;99.90;;;;;;4228997;28;20276;-61
2023/01/16 02:02:12;;;;;;;50.90;25.80;;;-0.40;99.90;;;;;;4228114;28;20280;-59
2023/01/16 02:04:17;;;;;;;54.50;27.50;;;-0.40;99.90;;;;;;4229397;28;20248;-62
2023/01/16 02:06:25;;;;;;;54.07;26.63;;;-0.40;99.90;;;;;;4228404;28;20256;-65
2023/01/16 02:08:31;;;;;;;50.70;26.57;;;-0.40;99.90;;;;;;4228875;28;20301;-62
2023/01/16 02:10:58;;;;;;;57.77;29.93;;;-0.40;99.90;;;;;;4228823;28;20627;-61
2023/01/16 02:13:01;;;;;;;64.23;31.87;;;-0.30;99.90;;;;;;4229170;28;20325;-61
2023/01/16 02:15:02;;;;;;;62.73;31.73;;;-0.40;99.90;;;;;;4227529;28;20741;-62
2023/01/16 02:19:53;;;;;;;64.50;30.37;;;-0.40;99.90;;;;;;4228366;28;20321;-61
2023/01/16 02:22:32;;;;;;;64.47;29.90;;;-0.40;99.90;;;;;;4229186;28;20818;-60
2023/01/16 02:25:00;;;;;;;61.90;32.17;;;-0.50;99.90;;;;;;4227844;28;20256;-61
2023/01/16 02:27:33;;;;;;;62.53;29.73;;;-0.40;99.90;;;;;;4228754;28;20272;-61
2023/01/16 02:29:59;;;;;;;61.50;31.73;;;-0.40;99.90;;;;;;4227834;28;20650;-60
2023/01/16 02:32:16;;;;;;;57.50;29.00;;;-0.30;99.90;;;;;;4228305;28;20326;-61
2023/01/16 02:34:36;;;;;;;58.90;29.13;;;-0.30;99.90;;;;;;4228433;28;20267;-61
2023/01/16 02:37:01;;;;;;;55.90;28.10;;;-0.20;99.90;;;;;;4228140;28;20264;-62
2023/01/16 02:39:11;;;;;;;57.40;28.67;;;-0.20;99.90;;;;;;4228764;28;20329;-60
2023/01/16 02:41:41;;;;;;;59.35;28.00;;;-0.20;99.90;;;;;;4227851;28;20275;-61
2023/01/16 02:44:04;;;;;;;52.07;27.53;;;-0.20;99.90;;;;;;4228857;28;20020;-61
2023/01/16 02:46:25;;;;;;;58.07;30.50;;;-0.20;99.90;;;;;;4225110;28;20613;-61
2023/01/16 02:48:51;;;;;;;63.67;31.17;;;-0.10;99.90;;;;;;4228787;28;20260;-64
2023/01/16 02:51:11;;;;;;;55.07;27.03;;;-0.10;99.90;;;;;;4220122;28;20295;-58
2023/01/16 02:53:25;;;;;;;43.93;21.33;;;-0.10;99.90;;;;;;4228454;28;20305;-67
2023/01/16 02:55:34;;;;;;;48.60;25.33;;;-0.10;99.90;;;;;;4226884;28;20321;-60
2023/01/16 02:57:48;;;;;;;51.00;25.23;;;-0.10;99.90;;;;;;4228171;28;20767;-69
2023/01/16 02:59:50;;;;;;;53.80;26.83;;;-0.10;99.90;;;;;;4227335;28;20658;-61
2023/01/16 03:01:51;;;;;;;51.90;27.13;;;0.00;99.90;;;;;;4227781;28;20703;-57
2023/01/16 03:03:52;;;;;;;57.83;28.30;;;0.10;99.90;;;;;;4227277;28;20686;-61
2023/01/16 03:06:00;;;;;;;54.23;27.63;;;0.10;99.90;;;;;;4228577;28;20574;-62
2023/01/16 03:08:04;;;;;;;44.60;24.60;;;0.10;99.90;;;;;;4227410;28;20325;-62
2023/01/16 03:10:29;;;;;;;44.77;23.33;;;0.10;99.90;;;;;;4228728;28;20343;-64
2023/01/16 03:13:08;;;;;;;46.20;22.27;;;0.20;99.90;;;;;;4225810;28;20276;-61
2023/01/16 03:15:15;;;;;;;42.97;22.17;;;0.20;99.90;;;;;;4192195;28;20289;-68
2023/01/16 03:17:53;;;;;;;42.47;23.17;;;0.20;99.90;;;;;;4227461;28;20816;-63
2023/01/16 03:20:05;;;;;;;44.13;23.63;;;0.10;99.90;;;;;;4227455;28;20260;-61
2023/01/16 03:22:41;;;;;;;40.63;21.83;;;0.00;99.90;;;;;;4227325;28;20268;-67
2023/01/16 03:25:02;;;;;;;47.03;23.67;;;-0.10;99.90;;;;;;4203260;28;20276;-69
2023/01/16 03:27:15;;;;;;;37.50;19.55;;;-0.20;99.90;;;;;;4228360;28;20309;-60
2023/01/16 03:29:59;;;;;;;40.50;21.53;;;-0.20;99.90;;;;;;4227031;28;20032;-64
2023/01/16 03:32:26;;;;;;;37.13;21.23;;;-0.20;99.90;;;;;;4175868;28;20685;-62
2023/01/16 03:34:46;;;;;;;34.50;17.83;;;-0.30;99.90;;;;;;4214127;28;20345;-62
2023/01/16 03:37:09;;;;;;;38.20;20.45;;;-0.20;99.90;;;;;;4226558;28;20740;-62
2023/01/16 03:39:14;;;;;;;54.53;25.07;;;-0.30;99.90;;;;;;4227390;28;20039;-61
2023/01/16 03:41:20;;;;;;;47.90;23.27;;;-0.20;99.90;;;;;;4227678;28;20335;-66
2023/01/16 03:43:32;;;;;;;49.33;23.97;;;-0.20;99.90;;;;;;4227161;28;20330;-63
2023/01/16 03:45:57;;;;;;;44.47;23.77;;;-0.30;99.90;;;;;;4227416;28;20309;-62
2023/01/16 03:48:06;;;;;;;48.17;23.63;;;-0.30;99.90;;;;;;4227715;28;20276;-63
2023/01/16 03:50:10;;;;;;;43.30;24.07;;;-0.30;99.90;;;;;;4226874;28;20308;-60
2023/01/16 03:52:17;;;;;;;44.40;23.23;;;-0.40;99.90;;;;;;4227183;28;20329;-70
2023/01/16 03:54:37;;;;;;;41.57;21.53;;;-0.40;99.90;;;;;;4227245;28;20325;-61
2023/01/16 03:56:49;;;;;;;45.73;22.30;;;-0.40;99.90;;;;;;4227442;28;20310;-63
2023/01/16 03:58:53;;;;;;;47.83;22.23;;;-0.40;99.90;;;;;;4221858;28;20256;-62
2023/01/16 04:01:01;;;;;;;47.00;22.60;;;-0.40;99.90;;;;;;4227118;28;20321;-62
2023/01/16 04:03:14;;;;;;;42.07;20.77;;;-0.40;99.90;;;;;;4227142;28;20312;-63
2023/01/16 04:05:28;;;;;;;45.80;21.83;;;-0.30;99.90;;;;;;4227668;28;20317;-63
2023/01/16 04:07:51;;;;;;;46.73;20.87;;;-0.30;99.90;;;;;;4226951;28;20419;-66
2023/01/16 04:10:00;;;;;;;44.40;21.17;;;-0.20;99.90;;;;;;4228261;28;20337;-62
2023/01/16 04:12:03;;;;;;;42.90;20.60;;;-0.20;99.90;;;;;;4227008;28;20702;-62
2023/01/16 04:14:07;;;;;;;45.07;22.67;;;-0.10;99.90;;;;;;4226377;28;20767;-66
2023/01/16 04:16:14;;;;;;;40.57;21.13;;;-0.10;99.90;;;;;;4226731;28;20268;-68
2023/01/16 04:18:15;;;;;;;40.17;18.60;;;0.00;99.90;;;;;;4227146;28;20309;-62
2023/01/16 04:20:16;;;;;;;45.53;22.73;;;0.00;99.90;;;;;;4227372;28;20268;-62
2023/01/16 04:22:26;;;;;;;50.80;22.50;;;0.00;99.90;;;;;;4227172;28;20345;-64
2023/01/16 04:24:27;;;;;;;44.70;20.70;;;0.00;99.90;;;;;;4227035;28;20735;-62
2023/01/16 04:26:29;;;;;;;42.80;23.10;;;0.00;99.90;;;;;;4226825;28;20058;-62
2023/01/16 04:28:30;;;;;;;42.30;21.40;;;0.10;99.90;;;;;;4227616;28;20265;-61
2023/01/16 04:30:31;;;;;;;42.33;20.43;;;0.10;99.90;;;;;;4226156;28;20451;-62
2023/01/16 04:32:32;;;;;;;44.63;22.97;;;0.10;99.90;;;;;;4227064;28;20310;-62
2023/01/16 04:34:33;;;;;;;42.00;22.67;;;0.10;99.90;;;;;;4226100;28;20353;-62
2023/01/16 04:36:34;;;;;;;37.87;19.63;;;0.10;99.90;;;;;;4227783;28;20260;-63
2023/01/16 04:38:35;;;;;;;36.40;19.17;;;0.10;99.90;;;;;;4227411;28;20264;-61
2023/01/16 04:40:36;;;;;;;37.80;21.07;;;0.10;99.90;;;;;;4231024;28;20260;-62
2023/01/16 04:42:38;;;;;;;49.07;19.90;;;0.00;99.90;;;;;;4228543;28;20271;-62
2023/01/16 04:44:39;;;;;;;38.17;20.00;;;0.00;99.90;;;;;;4229747;28;20682;-62
2023/01/16 04:46:40;;;;;;;33.33;18.93;;;0.00;99.90;;;;;;4228967;28;20284;-61
2023/01/16 04:48:41;;;;;;;34.47;19.30;;;0.00;99.90;;;;;;4230465;28;20264;-58
2023/01/16 04:50:42;;;;;;;36.60;18.97;;;0.10;99.90;;;;;;4229543;28;20768;-62
2023/01/16 04:52:43;;;;;;;34.47;18.10;;;0.10;99.90;;;;;;4230082;28;20268;-62
2023/01/16 04:54:45;;;;;;;34.67;19.40;;;0.10;99.90;;;;;;4229653;28;20297;-62
2023/01/16 04:56:46;;;;;;;34.63;16.67;;;0.10;99.90;;;;;;4229548;28;20755;-59
2023/01/16 04:58:49;;;;;;;34.57;18.03;;;0.10;99.90;;;;;;4229991;28;20289;-62
2023/01/16 05:00:53;;;;;;;30.23;16.20;;;0.10;99.90;;;;;;4228439;28;20320;-66
2023/01/16 05:02:54;;;;;;;33.70;17.87;;;0.10;99.90;;;;;;4230084;28;20317;-65
2023/01/16 05:04:55;;;;;;;31.23;18.17;;;0.10;99.90;;;;;;4229000;28;20260;-65
2023/01/16 05:06:56;;;;;;;36.20;18.33;;;0.10;99.90;;;;;;4230182;28;20670;-63
2023/01/16 05:08:57;;;;;;;36.00;18.03;;;0.10;99.90;;;;;;4228941;28;20805;-61
2023/01/16 05:11:00;;;;;;;36.90;20.97;;;0.00;99.90;;;;;;4222826;28;20334;-63
2023/01/16 05:13:02;;;;;;;37.00;19.10;;;0.00;99.90;;;;;;4211910;28;20281;-63
2023/01/16 05:15:04;;;;;;;35.57;18.83;;;0.00;99.90;;;;;;4212912;28;20318;-62
2023/01/16 05:17:05;;;;;;;41.33;21.07;;;0.00;99.90;;;;;;4211621;28;20310;-61
2023/01/16 05:19:06;;;;;;;41.57;21.17;;;0.00;99.90;;;;;;4212986;28;20306;-65
2023/01/16 05:21:07;;;;;;;36.60;19.77;;;0.00;99.90;;;;;;4211200;28;20273;-65
2023/01/16 05:23:10;;;;;;;34.40;19.30;;;0.00;99.90;;;;;;4212174;28;20290;-62
2023/01/16 05:25:11;;;;;;;34.17;18.37;;;0.00;99.90;;;;;;4212069;28;20733;-62
2023/01/16 05:27:12;;;;;;;40.20;20.07;;;0.00;99.90;;;;;;4211676;28;20351;-62
2023/01/16 05:29:13;;;;;;;47.17;20.73;;;-0.10;99.90;;;;;;4212154;28;20280;-62
2023/01/16 05:31:15;;;;;;;40.17;20.30;;;-0.10;99.90;;;;;;4211643;28;20358;-63
2023/01/16 05:33:16;;;;;;;39.40;19.90;;;0.00;99.90;;;;;;4212401;28;20265;-63
2023/01/16 05:35:17;;;;;;;48.30;23.00;;;0.00;99.90;;;;;;4211423;28;20357;-63
2023/01/16 05:37:18;;;;;;;69.23;35.27;;;0.00;99.90;;;;;;4224610;28;20264;-64
2023/01/16 05:39:19;;;;;;;44.07;22.30;;;0.10;99.90;;;;;;4227657;28;20276;-65
2023/01/16 05:41:20;;;;;;;38.67;20.33;;;0.10;99.90;;;;;;4229727;28;20264;-62
2023/01/16 05:43:21;;;;;;;37.80;19.63;;;0.10;99.90;;;;;;4227709;28;20302;-70
2023/01/16 05:45:23;;;;;;;40.60;20.80;;;0.10;99.90;;;;;;4228372;28;20420;-62
2023/01/16 05:47:24;;;;;;;32.80;17.70;;;0.10;99.90;;;;;;4228224;28;20268;-63
2023/01/16 05:49:25;;;;;;;32.23;18.47;;;0.10;99.90;;;;;;4228425;28;20326;-64
2023/01/16 05:51:26;;;;;;;42.27;19.00;;;0.10;99.90;;;;;;4227798;28;20341;-63
2023/01/16 05:53:27;;;;;;;36.27;19.13;;;0.10;99.90;;;;;;4228814;28;20264;-63
2023/01/16 05:55:30;;;;;;;36.43;19.40;;;0.00;99.90;;;;;;4228251;28;20562;-61
2023/01/16 05:57:31;;;;;;;40.73;19.40;;;0.00;99.90;;;;;;4228364;28;20313;-63
2023/01/16 05:59:32;;;;;;;41.43;19.23;;;0.00;99.90;;;;;;4228095;28;20272;-64
2023/01/16 06:01:33;;;;;;;37.93;19.63;;;0.00;99.90;;;;;;4228193;28;20763;-64
2023/01/16 06:03:34;;;;;;;44.93;20.87;;;0.00;99.90;;;;;;4228715;28;20256;-63
2023/01/16 06:05:36;;;;;;;40.43;20.30;;;0.10;99.90;;;;;;4227488;28;20614;-63
2023/01/16 06:07:37;;;;;;;58.00;22.67;;;0.10;99.90;;;;;;4228784;28;20256;-62
2023/01/16 06:09:39;;;;;;;47.97;22.90;;;0.10;99.90;;;;;;4227905;28;20313;-63
2023/01/16 06:11:40;;;;;;;66.30;31.37;;;0.10;99.90;;;;;;4228937;28;20345;-64
2023/01/16 06:13:41;;;;;;;42.40;21.93;;;0.10;99.90;;;;;;4227627;28;20263;-61
2023/01/16 06:15:42;;;;;;;44.43;22.50;;;0.10;99.90;;;;;;4228649;28;20337;-63
2023/01/16 06:17:43;;;;;;;45.43;20.53;;;0.20;99.90;;;;;;4227529;28;20263;-61
2023/01/16 06:19:45;;;;;;;46.70;21.67;;;0.10;99.90;;;;;;4228764;28;20654;-63
2023/01/16 06:21:46;;;;;;;48.27;22.67;;;0.10;99.90;;;;;;4227127;28;20298;-61
2023/01/16 06:23:47;;;;;;;46.27;21.97;;;0.10;99.90;;;;;;4228107;28;20304;-63
2023/01/16 06:25:49;;;;;;;47.80;22.53;;;0.10;99.90;;;;;;4227352;28;20309;-63
2023/01/16 06:27:51;;;;;;;56.43;25.33;;;0.10;99.90;;;;;;4228086;28;20332;-62
2023/01/16 06:29:52;;;;;;;51.30;24.37;;;0.10;99.90;;;;;;4227784;28;20244;-66
2023/01/16 06:31:53;;;;;;;53.90;24.03;;;0.10;99.90;;;;;;4227727;28;20280;-64
2023/01/16 06:33:54;;;;;;;51.67;25.03;;;0.10;99.90;;;;;;4228439;28;20661;-62
2023/01/16 06:35:55;;;;;;;57.07;24.27;;;0.10;99.90;;;;;;4226925;28;20349;-65
2023/01/16 06:37:57;;;;;;;47.90;22.10;;;0.10;99.90;;;;;;4228807;28;20760;-64
2023/01/16 06:39:59;;;;;;;63.23;24.73;;;0.10;99.90;;;;;;4227887;28;20276;-64
2023/01/16 06:42:03;;;;;;;51.47;24.60;;;0.10;99.90;;;;;;4228765;28;20754;-62
2023/01/16 06:44:04;;;;;;;58.87;23.73;;;0.10;99.90;;;;;;4227620;28;20272;-64
2023/01/16 06:46:05;;;;;;;55.63;24.70;;;0.20;99.90;;;;;;4228086;28;20397;-62
2023/01/16 06:48:06;;;;;;;59.33;25.63;;;0.20;99.90;;;;;;4226910;28;20816;-62
2023/01/16 06:50:08;;;;;;;55.90;25.93;;;0.20;99.90;;;;;;4228199;28;20279;-62
2023/01/16 06:52:09;;;;;;;56.27;26.97;;;0.20;99.90;;;;;;4226888;28;20690;-61
2023/01/16 06:54:10;;;;;;;57.20;24.47;;;0.30;99.90;;;;;;4228043;28;20317;-63
2023/01/16 06:56:11;;;;;;;51.73;24.57;;;0.20;99.90;;;;;;4226937;28;20298;-62
2023/01/16 06:58:13;;;;;;;57.20;23.20;;;0.30;99.90;;;;;;4227901;28;20263;-61
2023/01/16 07:00:14;;;;;;;49.70;22.67;;;0.30;99.90;;;;;;4227532;28;20720;-62
2023/01/16 07:02:15;;;;;;;48.07;22.80;;;0.30;99.90;;;;;;4227360;28;20272;-68
2023/01/16 07:04:17;;;;;;;48.03;24.60;;;0.30;99.90;;;;;;4226425;28;20260;-62
2023/01/16 07:06:18;;;;;;;50.63;22.73;;;0.20;99.90;;;;;;4227080;28;20642;-63
2023/01/16 07:08:19;;;;;;;63.10;26.90;;;0.30;99.90;;;;;;4228102;28;20272;-63
2023/01/16 07:10:21;;;;;;;60.60;27.27;;;0.20;99.90;;;;;;4226844;28;20621;-62
2023/01/16 07:12:22;;;;;;;58.43;26.27;;;0.30;99.90;;;;;;4227768;28;20288;-63
2023/01/16 07:24:05;;;;;;;54.13;24.53;;;0.20;99.90;;;;;;4217030;28;20329;-63
2023/01/16 07:26:08;;;;;;;51.40;25.50;;;0.20;99.90;;;;;;4227280;28;20264;-67
2023/01/16 07:28:09;;;;;;;55.93;25.10;;;0.20;99.90;;;;;;4227384;28;20252;-64
2023/01/16 07:30:11;;;;;;;63.07;27.00;;;0.20;99.90;;;;;;4227274;28;20724;-62
2023/01/16 07:32:12;;;;;;;59.33;25.70;;;0.20;99.90;;;;;;4226807;28;20300;-64
2023/01/16 07:34:13;;;;;;;61.70;26.17;;;0.20;99.90;;;;;;4227779;28;20252;-62
2023/01/16 07:36:14;;;;;;;49.13;25.07;;;0.20;99.90;;;;;;4226621;28;20461;-63
2023/01/16 07:38:15;;;;;;;61.27;26.77;;;0.30;99.90;;;;;;4227744;28;20276;-63
2023/01/16 07:40:17;;;;;;;59.30;26.80;;;0.30;99.90;;;;;;4226701;28;20306;-63
2023/01/16 07:42:18;;;;;;;67.87;28.13;;;0.30;99.90;;;;;;4228038;28;20284;-63
2023/01/16 07:44:19;;;;;;;65.33;29.27;;;0.30;99.90;;;;;;4226416;28;20722;-62
2023/01/16 07:46:20;;;;;;;65.57;29.87;;;0.40;99.90;;;;;;4227757;28;20260;-64
2023/01/16 07:48:22;;;;;;;60.63;26.70;;;0.40;99.90;;;;;;4226544;28;20796;-63
2023/01/16 07:50:23;;;;;;;60.90;27.23;;;0.40;99.90;;;;;;4227448;28;20256;-63
2023/01/16 07:52:24;;;;;;;57.07;27.20;;;0.40;99.90;;;;;;4226692;28;20752;-62
2023/01/16 07:54:25;;;;;;;49.87;23.97;;;0.40;99.90;;;;;;4227453;28;20256;-67
2023/01/16 07:56:26;;;;;;;44.77;21.63;;;0.40;99.90;;;;;;4226968;28;20252;-66
2023/01/16 07:58:29;;;;;;;51.03;23.33;;;0.30;99.90;;;;;;4226940;28;20256;-62
2023/01/16 08:00:30;;;;;;;40.93;21.30;;;0.40;99.90;;;;;;4227136;28;20256;-63
2023/01/16 08:02:31;;;;;;;41.17;21.87;;;0.40;99.90;;;;;;4226533;28;20320;-63
2023/01/16 08:04:32;;;;;;;41.67;20.83;;;0.40;99.90;;;;;;4227690;28;20281;-64
2023/01/16 08:06:34;;;;;;;44.83;20.37;;;0.50;99.90;;;;;;4226526;28;20677;-66
2023/01/16 08:08:35;;;;;;;40.27;21.13;;;0.50;99.90;;;;;;4227750;28;20337;-63
2023/01/16 08:10:37;;;;;;;36.97;20.63;;;0.50;99.90;;;;;;4226460;28;20268;-63
2023/01/16 08:12:39;;;;;;;39.70;20.83;;;0.60;99.90;;;;;;4227786;28;20288;-65
2023/01/16 08:14:40;;;;;;;40.00;20.40;;;0.60;99.90;;;;;;4228144;28;20714;-63
2023/01/16 08:16:41;;;;;;;42.67;19.67;;;0.60;99.90;;;;;;4230962;28;20297;-68
2023/01/16 08:18:42;;;;;;;38.27;20.13;;;0.70;99.90;;;;;;4229647;28;20325;-65
2023/01/16 08:20:44;;;;;;;40.57;20.33;;;0.70;99.90;;;;;;4230872;28;20272;-66
2023/01/16 08:22:47;;;;;;;40.80;20.37;;;0.70;99.90;;;;;;4229596;28;20317;-62
2023/01/16 08:24:48;;;;;;;42.67;21.43;;;0.80;99.90;;;;;;4230530;28;20276;-65
2023/01/16 08:26:49;;;;;;;39.13;20.83;;;0.90;99.90;;;;;;4229798;28;20272;-65
2023/01/16 08:28:52;;;;;;;43.70;20.20;;;0.90;99.90;;;;;;4230114;28;20731;-63
2023/01/16 08:30:53;;;;;;;41.20;21.37;;;0.90;99.90;;;;;;4229858;28;20263;-61
2023/01/16 08:32:58;;;;;;;40.50;20.37;;;1.00;99.90;;;;;;4229652;28;20292;-63
2023/01/16 08:34:59;;;;;;;34.57;18.80;;;1.10;99.90;;;;;;4229960;28;20310;-65
2023/01/16 08:37:02;;;;;;;33.77;18.37;;;1.10;99.90;;;;;;4228929;28;21806;-62
2023/01/16 08:39:04;;;;;;;32.30;18.70;;;1.20;99.90;;;;;;4230396;28;20264;-62
2023/01/16 08:51:21;;;;;;;37.03;17.87;;;1.10;99.90;;;;;;4229475;28;20265;-62
2023/01/16 08:52:49;;;;;;;39.97;19.60;;;1.40;99.90;;;;;;4229311;28;20349;-62
2023/01/16 08:54:50;;;;;;;33.53;18.10;;;1.40;99.90;;;;;;4229525;28;20835;-61
2023/01/16 08:56:51;;;;;;;42.90;20.33;;;1.50;99.90;;;;;;4229299;28;20252;-63
2023/01/16 08:58:53;;;;;;;41.60;20.77;;;1.60;99.90;;;;;;4229302;28;20724;-62
2023/01/16 09:00:54;;;;;;;42.03;21.50;;;1.50;99.90;;;;;;4229512;28;20260;-63
2023/01/16 09:02:58;;;;;;;39.63;21.13;;;1.60;99.90;;;;;;4228920;28;20268;-63
2023/01/16 09:04:59;;;;;;;34.93;19.30;;;1.60;99.90;;;;;;4229865;28;20325;-61
2023/01/16 09:07:00;;;;;;;44.77;20.63;;;1.70;99.90;;;;;;4229088;28;20258;-62
2023/01/16 09:09:05;;;;;;;37.33;19.97;;;1.70;99.90;;;;;;4229423;28;20321;-63
2023/01/16 09:15:46;;;;;;;41.73;19.70;;;1.90;99.90;;;;;;4228539;28;20326;-62
2023/01/16 09:17:47;;;;;;;44.17;21.60;;;2.00;99.90;;;;;;4227968;28;20268;-62
2023/01/16 09:19:48;;;;;;;42.10;20.77;;;2.00;99.90;;;;;;4228373;28;20425;-64
2023/01/16 09:21:49;;;;;;;38.43;20.67;;;2.00;99.90;;;;;;4227168;28;20345;-63
2023/01/16 09:23:51;;;;;;;41.00;21.93;;;2.00;99.90;;;;;;4228146;28;20902;-63
2023/01/16 09:25:53;;;;;;;42.93;22.30;;;2.00;99.90;;;;;;4229309;28;20336;-63
2023/01/16 09:27:55;;;;;;;45.67;22.40;;;2.10;99.90;;;;;;4228039;28;20280;-66
2023/01/16 09:29:56;;;;;;;42.50;21.57;;;2.20;99.90;;;;;;4229483;28;20340;-63
2023/01/16 09:31:58;;;;;;;49.87;23.50;;;2.20;99.90;;;;;;4228432;28;20621;-64
2023/01/16 09:33:59;;;;;;;48.07;24.17;;;2.30;99.90;;;;;;4229159;28;20736;-64
2023/01/16 09:36:00;;;;;;;45.20;23.20;;;2.40;99.90;;;;;;4228558;28;20686;-64
2023/01/16 09:38:01;;;;;;;48.67;24.37;;;2.40;99.90;;;;;;4228868;28;20257;-65
2023/01/16 09:40:03;;;;;;;43.83;22.57;;;2.50;99.90;;;;;;4228436;28;20352;-65
2023/01/16 09:44:30;;;;;;;41.13;20.87;;;2.60;99.90;;;;;;4228401;28;20373;-62
2023/01/16 09:46:38;;;;;;;40.97;20.67;;;2.60;99.90;;;;;;4228038;28;20268;-68
2023/01/16 09:49:01;;;;;;;36.83;19.57;;;2.60;99.90;;;;;;4228748;28;20260;-63
2023/01/16 09:51:16;;;;;;;43.77;22.63;;;2.50;99.90;;;;;;4228677;28;20317;-63
2023/01/16 10:00:36;;;;;;;34.53;19.93;;;2.60;99.90;;;;;;4229012;28;20089;-64
2023/01/16 10:02:37;;;;;;;40.17;20.90;;;2.50;99.90;;;;;;4227605;28;20793;-64
2023/01/16 10:04:39;;;;;;;42.80;21.50;;;2.50;99.90;;;;;;4228876;28;20322;-65
2023/01/16 10:07:07;;;;;;;44.40;22.33;;;2.50;99.90;;;;;;4227674;28;20367;-63
2023/01/16 10:09:27;;;;;;;43.40;21.90;;;2.50;99.90;;;;;;4208716;28;20721;-62
2023/01/16 10:11:43;;;;;;;32.80;17.75;;;2.60;99.90;;;;;;4227801;28;20264;-64
2023/01/16 10:14:02;;;;;;;38.60;20.87;;;2.60;99.90;;;;;;4228990;28;20031;-62
2023/01/16 10:16:15;;;;;;;36.10;16.73;;;2.60;99.90;;;;;;4227140;28;20284;-62
2023/01/16 10:18:44;;;;;;;32.23;15.40;;;2.70;99.90;;;;;;4228690;28;20265;-62
2023/01/16 10:21:02;;;;;;;29.57;14.23;;;2.60;99.90;;;;;;4227396;28;20816;-62
2023/01/16 10:23:18;;;;;;;33.13;16.23;;;2.60;99.90;;;;;;4228219;28;20260;-61
2023/01/16 10:25:28;;;;;;;29.73;15.83;;;2.70;99.90;;;;;;4227553;28;20360;-62
2023/01/16 10:27:49;;;;;;;32.85;16.15;;;2.80;99.90;;;;;;4228407;28;20332;-67
2023/01/16 10:30:00;;;;;;;26.70;13.73;;;2.80;99.90;;;;;;4227838;28;20089;-62
2023/01/16 10:32:14;;;;;;;32.97;14.40;;;2.90;99.90;;;;;;4228106;28;20499;-62
2023/01/16 10:34:29;;;;;;;30.37;14.40;;;2.90;99.90;;;;;;4227590;28;20276;-62
2023/01/16 10:36:36;;;;;;;26.50;13.67;;;2.80;99.90;;;;;;4226959;28;20376;-63
2023/01/16 10:38:55;;;;;;;28.97;14.20;;;2.90;99.90;;;;;;4227324;28;20261;-63
2023/01/16 10:40:57;;;;;;;26.17;12.57;;;3.00;99.90;;;;;;4226966;28;20322;-62
2023/01/16 10:50:14;;;;;;;28.67;14.90;;;2.80;99.90;;;;;;4227395;28;20332;-65
2023/01/16 10:52:15;;;;;;;29.70;14.60;;;2.80;99.90;;;;;;4226547;28;20104;-62
2023/01/16 10:54:16;;;;;;;29.57;15.43;;;2.80;99.90;;;;;;4226824;28;20260;-63
2023/01/16 10:56:18;;;;;;;32.40;15.50;;;2.80;99.90;;;;;;4228060;28;20252;-64
2023/01/16 10:58:29;;;;;;;32.97;16.17;;;2.90;99.90;;;;;;4225793;28;20325;-63
2023/01/16 11:00:41;;;;;;;31.87;14.80;;;2.90;99.90;;;;;;4227775;28;20271;-62
2023/01/16 11:02:45;;;;;;;41.07;16.83;;;2.90;99.90;;;;;;4226885;28;20651;-64
2023/01/16 11:04:47;;;;;;;27.37;14.30;;;3.00;99.90;;;;;;4227024;28;20712;-63
2023/01/16 11:06:48;;;;;;;34.37;14.23;;;3.00;99.90;;;;;;4227232;28;20268;-62
2023/01/16 11:09:13;;;;;;;30.57;14.27;;;3.00;99.90;;;;;;4226864;28;20659;-63
2023/01/16 11:18:28;;;;;;;24.90;14.37;;;2.90;99.90;;;;;;4226767;28;20329;-63
2023/01/16 11:18:34;;;;;;;30.90;14.33;;;2.90;99.90;;;;;;4227708;28;20283;-62
2023/01/16 11:20:39;;;;;;;34.53;15.10;;;2.90;99.90;;;;;;4226535;28;20267;-62
2023/01/16 11:22:41;;;;;;;27.30;14.10;;;2.90;99.90;;;;;;4227849;28;20269;-63
2023/01/16 11:24:44;;;;;;;26.63;13.70;;;3.00;99.90;;;;;;4226377;28;20253;-62
2023/01/16 11:26:51;;;;;;;29.23;14.23;;;3.00;99.90;;;;;;4227673;28;20424;-61
2023/01/16 11:28:54;;;;;;;28.23;13.03;;;3.00;99.90;;;;;;4226087;28;20276;-63
2023/01/16 11:31:00;;;;;;;27.17;12.60;;;3.00;99.90;;;;;;4227520;28;20340;-64